Time;durP1;ratioP1;P1;durP2;ratioP2;P2;SDS_P1;SDS_P2;PMS_P1;PMS_P2;Temp;Humidity;BMP_temperature;BMP_pressure;BME280_temperature;BME280_humidity;BME280_pressure;Samples;Min_cycle;Max_cycle;Signal;HPM_P1;HPM_P2
2021/07/16 00:01:34;;;;;;;11.32;8.02;;;;;;;;;;4401872;32;20327;-56
2021/07/16 00:04:00;;;;;;;17.85;8.30;;;;;;;;;;4402486;32;20351;-55
2021/07/16 00:06:26;;;;;;;10.40;8.10;;;;;;;;;;4402951;32;20633;-56
2021/07/16 00:08:51;;;;;;;10.90;8.20;;;;;;;;;;4402499;32;20353;-55
2021/07/16 00:11:17;;;;;;;14.20;9.15;;;;;;;;;;4402823;32;20216;-55
2021/07/16 00:13:42;;;;;;;11.93;8.43;;;;;;;;;;4402458;32;20251;-55
2021/07/16 00:16:08;;;;;;;11.93;8.73;;;;;;;;;;4402250;32;20666;-55
2021/07/16 00:18:34;;;;;;;18.17;8.98;;;;;;;;;;4402302;32;20619;-55
2021/07/16 00:21:01;;;;;;;14.43;8.73;;;;;;;;;;4403978;32;20476;-55
2021/07/16 00:23:28;;;;;;;16.12;8.75;;;;;;;;;;4405409;32;20603;-55
2021/07/16 00:25:54;;;;;;;10.90;7.70;;;;;;;;;;4405225;32;20255;-55
2021/07/16 00:28:21;;;;;;;13.95;9.18;;;;;;;;;;4404042;32;20321;-55
2021/07/16 00:30:47;;;;;;;12.85;8.27;;;;;;;;;;4405342;32;20236;-57
2021/07/16 00:33:13;;;;;;;10.82;7.15;;;;;;;;;;4404982;32;20291;-54
2021/07/16 00:35:38;;;;;;;13.05;9.02;;;;;;;;;;4405723;32;20609;-56
2021/07/16 00:38:04;;;;;;;13.30;8.15;;;;;;;;;;4404848;32;20232;-55
2021/07/16 00:40:29;;;;;;;12.60;8.15;;;;;;;;;;4405098;32;20612;-56
2021/07/16 00:42:55;;;;;;;16.23;9.88;;;;;;;;;;4404572;32;20607;-55
2021/07/16 00:45:22;;;;;;;18.10;8.90;;;;;;;;;;4405068;32;20386;-56
2021/07/16 00:47:48;;;;;;;19.60;8.90;;;;;;;;;;4404749;32;20310;-56
2021/07/16 00:50:20;;;;;;;11.80;9.23;;;;;;;;;;4404791;32;20276;-56
2021/07/16 00:52:46;;;;;;;16.37;10.13;;;;;;;;;;4403646;32;20555;-56
2021/07/16 00:55:13;;;;;;;12.60;9.68;;;;;;;;;;4402636;32;20229;-56
2021/07/16 00:57:41;;;;;;;13.48;9.45;;;;;;;;;;4389841;32;20210;-56
2021/07/16 01:00:08;;;;;;;13.65;9.50;;;;;;;;;;4395467;32;20209;-56
2021/07/16 01:02:35;;;;;;;15.35;11.65;;;;;;;;;;4405039;32;20584;-55
2021/07/16 01:05:01;;;;;;;23.60;12.88;;;;;;;;;;4403743;32;20684;-55
2021/07/16 01:07:26;;;;;;;27.83;14.82;;;;;;;;;;4404735;32;20218;-55
2021/07/16 01:09:52;;;;;;;15.43;11.05;;;;;;;;;;4404753;32;20229;-56
2021/07/16 01:12:21;;;;;;;12.65;9.45;;;;;;;;;;4404637;32;20255;-56
2021/07/16 01:14:47;;;;;;;13.13;7.93;;;;;;;;;;4403169;32;20345;-56
2021/07/16 01:17:13;;;;;;;11.38;8.70;;;;;;;;;;4404485;32;20562;-56
2021/07/16 01:19:57;;;;;;;14.38;9.10;;;;;;;;;;4404809;32;20237;-55
2021/07/16 01:22:27;;;;;;;12.55;7.87;;;;;;;;;;4405052;32;20227;-55
2021/07/16 01:24:52;;;;;;;9.73;7.60;;;;;;;;;;4404908;32;20275;-56
2021/07/16 01:27:22;;;;;;;11.88;7.85;;;;;;;;;;4403301;32;20324;-56
2021/07/16 01:29:49;;;;;;;10.77;7.35;;;;;;;;;;4404398;32;20236;-56
2021/07/16 01:32:18;;;;;;;9.57;7.87;;;;;;;;;;4403603;32;20245;-55
2021/07/16 01:34:44;;;;;;;13.68;7.75;;;;;;;;;;4404489;32;20277;-56
2021/07/16 01:37:10;;;;;;;18.62;7.65;;;;;;;;;;4403003;32;20304;-55
2021/07/16 01:39:37;;;;;;;14.87;8.10;;;;;;;;;;4404329;32;20274;-56
2021/07/16 01:42:05;;;;;;;11.68;7.80;;;;;;;;;;4402397;32;20289;-56
2021/07/16 01:44:31;;;;;;;12.52;7.50;;;;;;;;;;4404373;32;20230;-55
2021/07/16 01:46:57;;;;;;;12.10;8.25;;;;;;;;;;4404280;32;20506;-55
2021/07/16 01:49:22;;;;;;;8.65;6.93;;;;;;;;;;4404149;32;20550;-55
2021/07/16 01:51:47;;;;;;;9.82;8.45;;;;;;;;;;4404433;32;20734;-55
2021/07/16 01:54:13;;;;;;;11.63;8.02;;;;;;;;;;4403978;32;20287;-56
2021/07/16 01:56:38;;;;;;;9.57;7.60;;;;;;;;;;4403763;32;20284;-56
2021/07/16 01:59:04;;;;;;;14.87;8.45;;;;;;;;;;4403426;32;20544;-55
2021/07/16 02:01:29;;;;;;;21.33;10.23;;;;;;;;;;4402723;32;20712;-56
2021/07/16 02:03:55;;;;;;;16.25;10.27;;;;;;;;;;4404084;32;20206;-55
2021/07/16 02:06:21;;;;;;;16.00;10.88;;;;;;;;;;4403936;32;20668;-55
2021/07/16 02:08:46;;;;;;;16.12;11.98;;;;;;;;;;4402487;32;20229;-56
2021/07/16 02:11:12;;;;;;;18.60;13.43;;;;;;;;;;4403940;32;20506;-56
2021/07/16 02:13:38;;;;;;;19.05;11.12;;;;;;;;;;4404128;32;20222;-56
2021/07/16 02:16:05;;;;;;;16.92;10.30;;;;;;;;;;4403705;32;20276;-56
2021/07/16 02:18:30;;;;;;;15.68;10.95;;;;;;;;;;4403861;32;20291;-57
2021/07/16 02:20:56;;;;;;;11.50;9.15;;;;;;;;;;4402658;32;20360;-57
2021/07/16 02:23:24;;;;;;;12.75;8.27;;;;;;;;;;4403618;32;20294;-56
2021/07/16 02:25:51;;;;;;;12.35;9.20;;;;;;;;;;4403904;32;20455;-55
2021/07/16 02:28:20;;;;;;;10.82;8.02;;;;;;;;;;4403663;32;20302;-56
2021/07/16 02:30:47;;;;;;;13.85;9.20;;;;;;;;;;4403798;32;20619;-56
2021/07/16 02:33:13;;;;;;;9.25;7.65;;;;;;;;;;4403414;32;20631;-55
2021/07/16 02:35:39;;;;;;;11.73;8.35;;;;;;;;;;4403782;32;20245;-56
2021/07/16 02:38:05;;;;;;;11.00;9.00;;;;;;;;;;4403805;32;20240;-55
2021/07/16 02:40:32;;;;;;;16.95;11.20;;;;;;;;;;4403934;32;20217;-55
2021/07/16 02:42:58;;;;;;;16.20;9.45;;;;;;;;;;4403386;32;20551;-55
2021/07/16 02:45:24;;;;;;;13.88;9.27;;;;;;;;;;4402682;32;20289;-56
2021/07/16 02:47:51;;;;;;;16.12;9.93;;;;;;;;;;4403088;32;20273;-56
2021/07/16 02:50:21;;;;;;;27.90;10.85;;;;;;;;;;4403593;32;20189;-56
2021/07/16 02:52:47;;;;;;;21.83;11.95;;;;;;;;;;4403213;32;20495;-55
2021/07/16 02:55:13;;;;;;;18.05;9.95;;;;;;;;;;4403522;32;20463;-56
2021/07/16 02:57:39;;;;;;;15.40;9.50;;;;;;;;;;4403466;32;20642;-56
2021/07/16 03:00:13;;;;;;;12.25;9.45;;;;;;;;;;4401593;32;20233;-56
2021/07/16 03:02:43;;;;;;;17.75;10.40;;;;;;;;;;4403300;32;20210;-56
2021/07/16 03:05:10;;;;;;;22.08;9.32;;;;;;;;;;4403552;32;20684;-56
2021/07/16 03:07:36;;;;;;;18.58;10.88;;;;;;;;;;4403354;32;20202;-55
2021/07/16 03:10:07;;;;;;;20.27;10.52;;;;;;;;;;4403081;32;20329;-55
2021/07/16 03:12:33;;;;;;;12.40;8.27;;;;;;;;;;4403166;32;20221;-56
2021/07/16 03:14:59;;;;;;;13.73;9.45;;;;;;;;;;4403643;32;20300;-55
2021/07/16 03:17:24;;;;;;;15.18;10.32;;;;;;;;;;4403227;32;20201;-55
2021/07/16 03:19:50;;;;;;;21.80;11.88;;;;;;;;;;4403224;32;20329;-56
2021/07/16 03:22:15;;;;;;;18.62;14.25;;;;;;;;;;4403166;32;20237;-56
2021/07/16 03:24:41;;;;;;;19.77;13.65;;;;;;;;;;4403446;32;20209;-57
2021/07/16 03:27:06;;;;;;;23.80;13.57;;;;;;;;;;4403143;32;20209;-55
2021/07/16 03:29:31;;;;;;;24.23;11.68;;;;;;;;;;4403103;32;20248;-56
2021/07/16 03:31:57;;;;;;;22.70;12.57;;;;;;;;;;4402776;32;20209;-55
2021/07/16 03:34:23;;;;;;;20.30;13.13;;;;;;;;;;4401434;32;20256;-55
2021/07/16 03:36:48;;;;;;;13.77;9.68;;;;;;;;;;4403298;32;20697;-56
2021/07/16 03:39:14;;;;;;;11.38;8.93;;;;;;;;;;4401568;32;20218;-56
2021/07/16 03:41:39;;;;;;;16.50;9.05;;;;;;;;;;4401357;32;20308;-58
2021/07/16 03:44:05;;;;;;;9.40;7.47;;;;;;;;;;4402744;32;20434;-55
2021/07/16 03:46:30;;;;;;;12.00;8.85;;;;;;;;;;4401931;32;20324;-57
2021/07/16 03:48:56;;;;;;;16.37;9.68;;;;;;;;;;4402750;32;20208;-56
2021/07/16 03:51:23;;;;;;;13.02;10.18;;;;;;;;;;4402983;32;20320;-55
2021/07/16 03:53:49;;;;;;;17.50;9.77;;;;;;;;;;4402906;32;20247;-58
2021/07/16 03:56:14;;;;;;;18.10;8.82;;;;;;;;;;4394849;32;20674;-56
2021/07/16 03:58:41;;;;;;;8.63;7.43;;;;;;;;;;4390985;32;20728;-55
2021/07/16 04:01:06;;;;;;;18.55;8.23;;;;;;;;;;4405222;32;20240;-56
2021/07/16 04:03:32;;;;;;;10.00;8.30;;;;;;;;;;4406432;32;20580;-56
2021/07/16 04:05:57;;;;;;;17.35;8.20;;;;;;;;;;4404850;32;20350;-56
2021/07/16 04:08:23;;;;;;;19.35;8.70;;;;;;;;;;4404519;32;20263;-56
2021/07/16 04:10:49;;;;;;;12.30;8.75;;;;;;;;;;4405908;32;20226;-56
2021/07/16 04:13:15;;;;;;;13.02;8.43;;;;;;;;;;4405538;32;20210;-56
2021/07/16 04:15:42;;;;;;;19.25;8.75;;;;;;;;;;4405630;32;20296;-57
2021/07/16 04:18:08;;;;;;;17.30;8.52;;;;;;;;;;4405234;32;20348;-57
2021/07/16 04:20:39;;;;;;;16.50;9.63;;;;;;;;;;4405613;32;20197;-56
2021/07/16 04:23:06;;;;;;;16.98;8.60;;;;;;;;;;4405353;32;20359;-56
2021/07/16 04:25:32;;;;;;;15.50;9.15;;;;;;;;;;4405555;32;20870;-56
2021/07/16 04:27:59;;;;;;;14.80;9.30;;;;;;;;;;4405473;32;20317;-56
2021/07/16 04:30:25;;;;;;;15.23;9.88;;;;;;;;;;4405225;32;20273;-56
2021/07/16 04:32:53;;;;;;;10.70;8.55;;;;;;;;;;4405639;32;20492;-55
2021/07/16 04:35:19;;;;;;;20.42;9.40;;;;;;;;;;4405010;32;20221;-56
2021/07/16 04:37:45;;;;;;;12.45;8.48;;;;;;;;;;4405163;32;20363;-56
2021/07/16 04:40:15;;;;;;;14.77;8.15;;;;;;;;;;4405618;32;20335;-58
2021/07/16 04:42:40;;;;;;;16.83;8.88;;;;;;;;;;4405040;32;20382;-56
2021/07/16 04:45:06;;;;;;;13.90;9.85;;;;;;;;;;4405084;32;20225;-56
2021/07/16 04:47:32;;;;;;;16.30;9.20;;;;;;;;;;4405596;32;20744;-56
2021/07/16 04:49:57;;;;;;;21.95;9.13;;;;;;;;;;4405251;32;20218;-55
2021/07/16 04:52:23;;;;;;;18.58;9.55;;;;;;;;;;4404941;32;20292;-56
2021/07/16 04:54:48;;;;;;;21.83;9.63;;;;;;;;;;4404944;32;20240;-56
2021/07/16 04:57:14;;;;;;;14.30;8.90;;;;;;;;;;4388923;32;20300;-55
2021/07/16 04:59:39;;;;;;;12.35;8.68;;;;;;;;;;4396027;32;20678;-56
2021/07/16 05:02:06;;;;;;;11.75;7.82;;;;;;;;;;4405122;32;20281;-55
2021/07/16 05:04:32;;;;;;;9.23;7.80;;;;;;;;;;4405093;32;20213;-56
2021/07/16 05:06:58;;;;;;;15.63;8.10;;;;;;;;;;4402876;32;20334;-55
2021/07/16 05:09:23;;;;;;;12.65;9.27;;;;;;;;;;4404765;32;20221;-55
2021/07/16 05:11:50;;;;;;;11.40;8.57;;;;;;;;;;4405546;32;20321;-55
2021/07/16 05:14:16;;;;;;;12.18;8.35;;;;;;;;;;4404983;32;20221;-56
2021/07/16 05:16:41;;;;;;;13.80;7.70;;;;;;;;;;4405075;32;20286;-57
2021/07/16 05:19:07;;;;;;;12.70;8.25;;;;;;;;;;4404900;32;20319;-56
2021/07/16 05:21:33;;;;;;;20.08;8.57;;;;;;;;;;4404865;32;20583;-56
2021/07/16 05:23:59;;;;;;;13.13;8.48;;;;;;;;;;4404704;32;20225;-56
2021/07/16 05:26:25;;;;;;;16.67;9.38;;;;;;;;;;4404728;32;20269;-55
2021/07/16 05:28:51;;;;;;;12.52;9.48;;;;;;;;;;4404940;32;20296;-56
2021/07/16 05:31:17;;;;;;;13.95;8.52;;;;;;;;;;4404773;32;20744;-56
2021/07/16 05:33:43;;;;;;;10.93;9.63;;;;;;;;;;4405002;32;20289;-56
2021/07/16 05:36:09;;;;;;;13.77;8.25;;;;;;;;;;4402679;32;20656;-56
2021/07/16 05:38:36;;;;;;;12.77;7.40;;;;;;;;;;4403025;32;20225;-56
2021/07/16 05:41:02;;;;;;;13.40;8.90;;;;;;;;;;4402821;32;20229;-55
2021/07/16 05:43:28;;;;;;;15.52;8.98;;;;;;;;;;4402260;32;20330;-57
2021/07/16 05:45:53;;;;;;;17.80;9.18;;;;;;;;;;4403472;32;20296;-56
2021/07/16 05:48:21;;;;;;;18.80;8.73;;;;;;;;;;4403108;32;20218;-55
2021/07/16 05:50:47;;;;;;;10.90;8.00;;;;;;;;;;4403447;32;20239;-55
2021/07/16 05:53:13;;;;;;;20.85;8.88;;;;;;;;;;4403564;32;20741;-55
2021/07/16 05:55:39;;;;;;;10.77;8.50;;;;;;;;;;4404973;32;20523;-55
2021/07/16 05:58:05;;;;;;;13.43;9.13;;;;;;;;;;4404359;32;20217;-55
2021/07/16 06:00:31;;;;;;;13.10;9.63;;;;;;;;;;4404298;32;20301;-56
2021/07/16 06:02:57;;;;;;;13.07;9.30;;;;;;;;;;4404572;32;20266;-55
2021/07/16 06:05:23;;;;;;;16.87;8.95;;;;;;;;;;4405276;32;20296;-58
2021/07/16 06:07:48;;;;;;;18.45;10.38;;;;;;;;;;4404803;32;20379;-56
2021/07/16 06:10:14;;;;;;;12.75;8.85;;;;;;;;;;4404648;32;20217;-56
2021/07/16 06:12:40;;;;;;;12.88;8.77;;;;;;;;;;4404722;32;20292;-56
2021/07/16 06:15:07;;;;;;;19.20;10.10;;;;;;;;;;4404349;32;20221;-55
2021/07/16 06:17:33;;;;;;;18.55;8.73;;;;;;;;;;4404777;32;20545;-56
2021/07/16 06:19:59;;;;;;;14.18;9.82;;;;;;;;;;4403754;32;20263;-56
2021/07/16 06:22:25;;;;;;;10.90;9.45;;;;;;;;;;4404035;32;20280;-57
2021/07/16 06:24:51;;;;;;;10.60;8.40;;;;;;;;;;4404662;32;20288;-56
2021/07/16 06:27:17;;;;;;;16.55;9.63;;;;;;;;;;4404193;32;20694;-55
2021/07/16 06:29:42;;;;;;;12.37;8.60;;;;;;;;;;4404446;32;20283;-56
2021/07/16 06:32:08;;;;;;;14.80;8.90;;;;;;;;;;4403966;32;20703;-55
2021/07/16 06:34:33;;;;;;;22.52;9.70;;;;;;;;;;4404200;32;20214;-55
2021/07/16 06:36:59;;;;;;;12.07;9.30;;;;;;;;;;4404189;32;20636;-56
2021/07/16 06:39:24;;;;;;;11.05;8.50;;;;;;;;;;4403801;32;20221;-56
2021/07/16 06:41:50;;;;;;;14.95;8.93;;;;;;;;;;4401617;32;20315;-58
2021/07/16 06:44:16;;;;;;;21.75;9.80;;;;;;;;;;4402206;32;20362;-56
2021/07/16 06:46:42;;;;;;;11.77;8.55;;;;;;;;;;4403101;32;20283;-57
2021/07/16 06:49:07;;;;;;;13.07;9.65;;;;;;;;;;4395540;32;20690;-56
2021/07/16 06:51:33;;;;;;;11.75;8.27;;;;;;;;;;4403305;32;20358;-56
2021/07/16 06:54:00;;;;;;;15.27;9.63;;;;;;;;;;4403469;32;20341;-55
2021/07/16 06:56:25;;;;;;;13.00;9.23;;;;;;;;;;4403918;32;20712;-57
2021/07/16 06:58:52;;;;;;;12.43;9.65;;;;;;;;;;4403736;32;20221;-56
2021/07/16 07:01:21;;;;;;;16.23;9.05;;;;;;;;;;4392034;32;20926;-56
2021/07/16 07:03:47;;;;;;;13.57;8.45;;;;;;;;;;4396098;32;20221;-55
2021/07/16 07:06:13;;;;;;;12.02;8.90;;;;;;;;;;4403588;32;20614;-56
2021/07/16 07:08:38;;;;;;;14.35;9.13;;;;;;;;;;4401663;32;20344;-55
2021/07/16 07:11:05;;;;;;;18.30;8.40;;;;;;;;;;4403630;32;20328;-57
2021/07/16 07:13:31;;;;;;;12.32;8.55;;;;;;;;;;4394580;32;20300;-56
2021/07/16 07:15:56;;;;;;;11.43;8.13;;;;;;;;;;4404594;32;20673;-55
2021/07/16 07:18:22;;;;;;;14.98;8.15;;;;;;;;;;4402244;32;20363;-55
2021/07/16 07:20:47;;;;;;;9.75;8.57;;;;;;;;;;4403238;32;20634;-54
2021/07/16 07:23:14;;;;;;;12.20;9.30;;;;;;;;;;4402400;32;20229;-56
2021/07/16 07:25:39;;;;;;;13.48;9.23;;;;;;;;;;4403291;32;20293;-55
2021/07/16 07:28:05;;;;;;;17.83;10.07;;;;;;;;;;4402829;32;20259;-55
2021/07/16 07:30:30;;;;;;;17.90;11.02;;;;;;;;;;4402377;32;20359;-55
2021/07/16 07:32:56;;;;;;;15.98;9.80;;;;;;;;;;4402722;32;20298;-55
2021/07/16 07:35:21;;;;;;;25.40;10.70;;;;;;;;;;4402934;32;20277;-55
2021/07/16 07:37:47;;;;;;;15.45;9.65;;;;;;;;;;4402502;32;20288;-54
2021/07/16 07:40:15;;;;;;;17.50;9.57;;;;;;;;;;4402285;32;20331;-56
2021/07/16 07:42:41;;;;;;;16.02;9.95;;;;;;;;;;4400645;32;20330;-54
2021/07/16 07:45:07;;;;;;;20.95;10.40;;;;;;;;;;4402017;32;20222;-55
2021/07/16 07:47:33;;;;;;;16.65;10.95;;;;;;;;;;4401501;32;20229;-55
2021/07/16 07:50:13;;;;;;;14.80;10.75;;;;;;;;;;4402159;32;20377;-56
2021/07/16 07:52:39;;;;;;;16.62;10.32;;;;;;;;;;4391922;32;20664;-56
2021/07/16 07:55:05;;;;;;;13.38;10.07;;;;;;;;;;4399509;32;20254;-56
2021/07/16 07:57:30;;;;;;;16.75;11.10;;;;;;;;;;4393087;32;20318;-56
2021/07/16 07:59:56;;;;;;;12.13;9.70;;;;;;;;;;4402096;32;20217;-55
2021/07/16 08:02:21;;;;;;;15.30;10.13;;;;;;;;;;4402666;32;20276;-55
2021/07/16 08:04:47;;;;;;;17.17;11.15;;;;;;;;;;4402360;32;20293;-55
2021/07/16 08:07:12;;;;;;;18.70;11.82;;;;;;;;;;4402824;32;20307;-55
2021/07/16 08:09:38;;;;;;;18.33;10.02;;;;;;;;;;4392949;32;20257;-54
2021/07/16 08:12:04;;;;;;;13.75;11.10;;;;;;;;;;4385041;32;20724;-56
2021/07/16 08:14:30;;;;;;;16.35;11.18;;;;;;;;;;4384715;32;20608;-56
2021/07/16 08:16:55;;;;;;;13.05;10.52;;;;;;;;;;4386937;32;20280;-57
2021/07/16 08:19:21;;;;;;;16.23;11.70;;;;;;;;;;4387625;32;20229;-56
2021/07/16 08:21:48;;;;;;;16.05;11.20;;;;;;;;;;4387746;32;20312;-63
2021/07/16 08:24:14;;;;;;;13.15;10.77;;;;;;;;;;4387891;32;20249;-56
2021/07/16 08:26:41;;;;;;;12.98;11.15;;;;;;;;;;4394847;32;20726;-56
2021/07/16 08:29:06;;;;;;;14.68;11.40;;;;;;;;;;4401971;32;20271;-55
2021/07/16 08:31:32;;;;;;;20.90;11.88;;;;;;;;;;4395070;32;20293;-57
2021/07/16 08:33:58;;;;;;;15.10;10.98;;;;;;;;;;4388028;32;20248;-55
2021/07/16 08:36:23;;;;;;;13.00;11.05;;;;;;;;;;4387650;32;20265;-56
2021/07/16 08:38:49;;;;;;;14.38;10.55;;;;;;;;;;4387221;32;20222;-56
2021/07/16 08:41:15;;;;;;;17.40;11.02;;;;;;;;;;4388032;32;20272;-55
2021/07/16 08:43:42;;;;;;;17.50;10.73;;;;;;;;;;4389350;32;20305;-56
2021/07/16 08:46:09;;;;;;;16.92;10.20;;;;;;;;;;4389067;32;20257;-56
2021/07/16 08:48:36;;;;;;;18.70;10.77;;;;;;;;;;4390003;32;20214;-56
2021/07/16 08:51:01;;;;;;;12.02;9.98;;;;;;;;;;4389977;32;20308;-57
2021/07/16 08:53:28;;;;;;;12.43;9.73;;;;;;;;;;4389315;32;20313;-55
2021/07/16 08:55:54;;;;;;;13.52;11.20;;;;;;;;;;4395625;32;20292;-55
2021/07/16 08:58:19;;;;;;;14.20;10.55;;;;;;;;;;4405321;32;20221;-56
2021/07/16 09:00:45;;;;;;;14.98;11.27;;;;;;;;;;4402594;32;20675;-55
2021/07/16 09:03:11;;;;;;;12.93;10.38;;;;;;;;;;4403388;32;20665;-55
2021/07/16 09:05:42;;;;;;;17.35;10.45;;;;;;;;;;4403721;32;20277;-55
2021/07/16 09:08:22;;;;;;;15.32;10.52;;;;;;;;;;4404735;32;20773;-56
2021/07/16 09:10:53;;;;;;;15.55;10.88;;;;;;;;;;4404284;32;20213;-55
2021/07/16 09:13:20;;;;;;;11.90;9.60;;;;;;;;;;4404598;32;20229;-55
2021/07/16 09:15:51;;;;;;;15.57;10.50;;;;;;;;;;4404741;32;20221;-56
2021/07/16 09:18:21;;;;;;;16.15;11.25;;;;;;;;;;4404149;32;20391;-55
2021/07/16 09:20:49;;;;;;;13.90;10.48;;;;;;;;;;4404066;32;20202;-56
2021/07/16 09:23:17;;;;;;;16.25;12.13;;;;;;;;;;4403969;32;20253;-56
2021/07/16 09:25:44;;;;;;;14.90;10.20;;;;;;;;;;4400835;32;20299;-56
2021/07/16 09:28:24;;;;;;;16.50;11.50;;;;;;;;;;4402487;32;20256;-56
2021/07/16 09:30:50;;;;;;;13.15;11.12;;;;;;;;;;4401970;32;20233;-56
2021/07/16 09:33:16;;;;;;;15.73;10.35;;;;;;;;;;4402137;32;20260;-56
2021/07/16 09:35:43;;;;;;;16.05;9.73;;;;;;;;;;4401461;32;20455;-57
2021/07/16 09:38:17;;;;;;;15.20;10.38;;;;;;;;;;4402255;32;20233;-56
2021/07/16 09:40:50;;;;;;;17.65;10.43;;;;;;;;;;4399232;32;20652;-56
2021/07/16 09:43:24;;;;;;;27.60;10.20;;;;;;;;;;4399981;32;20272;-56
2021/07/16 09:45:52;;;;;;;17.23;10.77;;;;;;;;;;4401696;32;20262;-56
2021/07/16 09:48:21;;;;;;;17.95;9.30;;;;;;;;;;4402063;32;20233;-56
2021/07/16 09:50:47;;;;;;;14.55;11.07;;;;;;;;;;4402743;32;20220;-56
2021/07/16 09:53:29;;;;;;;14.65;10.25;;;;;;;;;;4402057;32;20412;-56
2021/07/16 09:56:13;;;;;;;16.00;10.50;;;;;;;;;;4400225;32;20264;-56
2021/07/16 09:58:39;;;;;;;13.32;9.48;;;;;;;;;;4400955;32;20351;-56
2021/07/16 10:01:05;;;;;;;19.12;9.93;;;;;;;;;;4401439;32;20392;-55
2021/07/16 10:03:31;;;;;;;15.13;10.43;;;;;;;;;;4403361;32;20225;-56
2021/07/16 10:05:59;;;;;;;14.68;9.68;;;;;;;;;;4403323;32;20252;-56
2021/07/16 10:08:31;;;;;;;11.35;8.23;;;;;;;;;;4403705;32;20216;-55
2021/07/16 10:10:57;;;;;;;18.37;10.00;;;;;;;;;;4402918;32;20250;-55
2021/07/16 10:13:22;;;;;;;14.45;8.85;;;;;;;;;;4403268;32;20221;-56
2021/07/16 10:15:48;;;;;;;12.55;9.23;;;;;;;;;;4403164;32;20636;-57
2021/07/16 10:18:14;;;;;;;11.25;9.20;;;;;;;;;;4403123;32;20221;-55
2021/07/16 10:20:40;;;;;;;12.48;9.60;;;;;;;;;;4403076;32;20280;-56
2021/07/16 10:23:07;;;;;;;14.48;10.43;;;;;;;;;;4403560;32;20572;-56
2021/07/16 10:25:33;;;;;;;21.25;10.55;;;;;;;;;;4401121;32;20256;-57
2021/07/16 10:27:59;;;;;;;12.07;9.20;;;;;;;;;;4402581;32;20232;-56
2021/07/16 10:30:31;;;;;;;15.93;8.18;;;;;;;;;;4399831;32;20367;-57
2021/07/16 10:32:57;;;;;;;11.80;9.10;;;;;;;;;;4399504;32;20266;-56
2021/07/16 10:35:34;;;;;;;13.00;8.40;;;;;;;;;;4400469;32;20706;-56
2021/07/16 10:38:02;;;;;;;13.62;8.70;;;;;;;;;;4398094;32;20602;-55
2021/07/16 10:40:44;;;;;;;11.38;9.38;;;;;;;;;;4398105;32;20221;-56
2021/07/16 10:43:30;;;;;;;11.85;9.02;;;;;;;;;;4398862;32;20316;-56
2021/07/16 10:46:00;;;;;;;12.07;9.73;;;;;;;;;;4397159;32;20691;-56
2021/07/16 10:48:33;;;;;;;12.65;8.32;;;;;;;;;;4401171;32;20257;-56
2021/07/16 10:51:00;;;;;;;9.80;8.23;;;;;;;;;;4400996;32;20240;-56
2021/07/16 10:53:28;;;;;;;12.75;7.70;;;;;;;;;;4401433;32;20575;-55
2021/07/16 10:55:54;;;;;;;11.85;7.70;;;;;;;;;;4399838;32;20972;-55
2021/07/16 10:58:23;;;;;;;18.10;7.65;;;;;;;;;;4397193;32;20351;-56
2021/07/16 11:00:50;;;;;;;11.63;8.55;;;;;;;;;;4401054;32;20213;-56
2021/07/16 11:03:16;;;;;;;15.02;7.85;;;;;;;;;;4402805;32;20229;-55
2021/07/16 11:05:45;;;;;;;11.90;7.57;;;;;;;;;;4402049;32;20280;-57
2021/07/16 11:08:26;;;;;;;12.95;8.43;;;;;;;;;;4401551;32;20540;-55
2021/07/16 11:10:56;;;;;;;15.80;8.00;;;;;;;;;;4401969;32;20243;-56
2021/07/16 11:13:48;;;;;;;9.98;7.53;;;;;;;;;;4402551;32;20225;-55
2021/07/16 11:16:24;;;;;;;9.80;7.03;;;;;;;;;;4400823;32;20213;-56
2021/07/16 11:19:07;;;;;;;11.57;8.10;;;;;;;;;;4401318;32;20232;-57
2021/07/16 11:21:42;;;;;;;15.05;7.05;;;;;;;;;;4401085;32;20490;-56
2021/07/16 11:24:21;;;;;;;12.00;7.78;;;;;;;;;;4401846;32;20300;-59
2021/07/16 11:27:05;;;;;;;11.55;6.75;;;;;;;;;;4401767;32;20213;-57
2021/07/16 11:29:36;;;;;;;10.60;7.78;;;;;;;;;;4401911;32;20307;-56
2021/07/16 11:32:11;;;;;;;11.43;8.13;;;;;;;;;;4391695;32;20249;-57
2021/07/16 11:34:44;;;;;;;16.27;8.23;;;;;;;;;;4401157;32;20213;-56
2021/07/16 11:37:09;;;;;;;10.07;8.20;;;;;;;;;;4402944;32;20194;-57
2021/07/16 11:39:39;;;;;;;10.73;7.57;;;;;;;;;;4401941;32;20242;-56
2021/07/16 11:42:06;;;;;;;9.95;7.70;;;;;;;;;;4402352;32;20615;-56
2021/07/16 11:44:38;;;;;;;10.43;7.87;;;;;;;;;;4402109;32;20298;-56
2021/07/16 11:47:15;;;;;;;11.70;7.50;;;;;;;;;;4402361;32;20202;-56
2021/07/16 11:49:49;;;;;;;13.07;7.12;;;;;;;;;;4401949;32;21064;-55
2021/07/16 11:52:20;;;;;;;11.68;6.87;;;;;;;;;;4402630;32;20609;-55
2021/07/16 11:54:45;;;;;;;13.38;7.55;;;;;;;;;;4402325;32;20257;-55
2021/07/16 11:57:15;;;;;;;9.77;7.15;;;;;;;;;;4400642;32;20341;-56
2021/07/16 11:59:49;;;;;;;10.02;7.05;;;;;;;;;;4395516;32;20811;-56
2021/07/16 12:02:16;;;;;;;10.23;7.80;;;;;;;;;;4386657;32;20189;-56
2021/07/16 12:04:43;;;;;;;11.45;7.78;;;;;;;;;;4396210;32;20291;-55
2021/07/16 12:07:10;;;;;;;11.27;7.80;;;;;;;;;;4401658;32;20197;-56
2021/07/16 12:09:38;;;;;;;12.00;8.30;;;;;;;;;;4401149;32;20299;-55
2021/07/16 12:12:14;;;;;;;10.48;8.23;;;;;;;;;;4401074;32;20270;-55
2021/07/16 12:14:47;;;;;;;14.60;7.95;;;;;;;;;;4400347;32;20276;-55
2021/07/16 12:17:14;;;;;;;12.77;8.10;;;;;;;;;;4403056;32;20201;-55
2021/07/16 12:19:40;;;;;;;15.32;9.23;;;;;;;;;;4403975;32;20213;-56
2021/07/16 12:22:06;;;;;;;8.80;7.93;;;;;;;;;;4403852;32;20300;-56
2021/07/16 12:24:33;;;;;;;8.98;7.97;;;;;;;;;;4404205;32;20267;-55
2021/07/16 12:27:10;;;;;;;11.35;9.45;;;;;;;;;;4403152;32;20658;-55
2021/07/16 12:29:36;;;;;;;14.93;8.75;;;;;;;;;;4404088;32;20237;-55
2021/07/16 12:32:02;;;;;;;23.60;9.18;;;;;;;;;;4394470;32;20751;-55
2021/07/16 12:34:28;;;;;;;12.57;8.50;;;;;;;;;;4402038;32;20577;-56
2021/07/16 12:37:16;;;;;;;14.05;8.45;;;;;;;;;;4403890;32;20300;-56
2021/07/16 12:39:45;;;;;;;12.75;8.25;;;;;;;;;;4403503;32;20715;-56
2021/07/16 12:42:14;;;;;;;13.65;8.68;;;;;;;;;;4404065;32;20669;-56
2021/07/16 12:44:40;;;;;;;19.62;12.27;;;;;;;;;;4404245;32;20275;-55
2021/07/16 12:47:06;;;;;;;11.65;9.50;;;;;;;;;;4404886;32;20285;-56
2021/07/16 12:49:32;;;;;;;11.95;8.73;;;;;;;;;;4404648;32;20317;-56
2021/07/16 12:52:09;;;;;;;11.23;9.02;;;;;;;;;;4404520;32;20272;-57
2021/07/16 12:54:35;;;;;;;11.40;9.20;;;;;;;;;;4404255;32;20279;-56
2021/07/16 12:57:14;;;;;;;15.15;9.82;;;;;;;;;;4404623;32;20676;-56
2021/07/16 12:59:50;;;;;;;13.40;8.98;;;;;;;;;;4404305;32;20243;-56
2021/07/16 13:02:20;;;;;;;16.30;8.73;;;;;;;;;;4404958;32;20613;-56
2021/07/16 13:04:49;;;;;;;14.32;8.43;;;;;;;;;;4404494;32;20222;-56
2021/07/16 13:07:26;;;;;;;12.02;9.63;;;;;;;;;;4404807;32;20198;-57
2021/07/16 13:09:51;;;;;;;17.73;10.07;;;;;;;;;;4403753;32;20371;-57
2021/07/16 13:12:21;;;;;;;12.95;9.32;;;;;;;;;;4403304;32;20759;-57
2021/07/16 13:15:00;;;;;;;15.23;11.00;;;;;;;;;;4403479;32;20222;-56
2021/07/16 13:17:32;;;;;;;12.27;8.98;;;;;;;;;;4403031;32;20256;-56
2021/07/16 13:20:10;;;;;;;14.80;10.25;;;;;;;;;;4404412;32;20543;-56
2021/07/16 13:22:42;;;;;;;16.98;10.23;;;;;;;;;;4402961;32;20215;-56
2021/07/16 13:25:18;;;;;;;15.82;10.52;;;;;;;;;;4403269;32;20205;-56
2021/07/16 13:27:45;;;;;;;10.82;9.73;;;;;;;;;;4403631;32;20247;-56
2021/07/16 13:30:12;;;;;;;11.00;8.75;;;;;;;;;;4404388;32;20296;-56
2021/07/16 13:32:38;;;;;;;10.68;9.15;;;;;;;;;;4391412;32;20225;-56
2021/07/16 13:35:05;;;;;;;16.00;9.18;;;;;;;;;;4404049;32;20264;-56
2021/07/16 13:37:32;;;;;;;14.18;9.60;;;;;;;;;;4403638;32;20295;-57
2021/07/16 13:39:58;;;;;;;11.32;8.98;;;;;;;;;;4404028;32;20217;-56
2021/07/16 13:42:24;;;;;;;13.52;10.27;;;;;;;;;;4401134;32;20296;-56
2021/07/16 13:44:49;;;;;;;11.80;9.50;;;;;;;;;;4403411;32;20256;-57
2021/07/16 13:47:16;;;;;;;17.60;10.48;;;;;;;;;;4403787;32;20291;-56
2021/07/16 13:49:42;;;;;;;11.27;9.57;;;;;;;;;;4399004;32;20763;-56
2021/07/16 13:52:07;;;;;;;11.88;9.20;;;;;;;;;;4403340;32;20264;-57
2021/07/16 13:54:33;;;;;;;16.77;9.60;;;;;;;;;;4403891;32;20213;-57
2021/07/16 13:56:58;;;;;;;12.23;9.27;;;;;;;;;;4403025;32;20512;-56
2021/07/16 13:59:24;;;;;;;12.30;10.48;;;;;;;;;;4400835;32;20237;-56
2021/07/16 14:01:55;;;;;;;13.13;9.55;;;;;;;;;;4400798;32;20283;-56
2021/07/16 14:04:21;;;;;;;11.38;9.05;;;;;;;;;;4402247;32;20355;-56
2021/07/16 14:06:47;;;;;;;13.52;10.05;;;;;;;;;;4401544;32;20384;-57
2021/07/16 14:09:12;;;;;;;14.30;9.18;;;;;;;;;;4403327;32;20233;-56
2021/07/16 14:11:38;;;;;;;16.70;10.02;;;;;;;;;;4402513;32;20322;-56
2021/07/16 14:14:03;;;;;;;18.35;10.15;;;;;;;;;;4403594;32;20237;-56
2021/07/16 14:16:34;;;;;;;13.32;9.00;;;;;;;;;;4403620;32;20303;-56
2021/07/16 14:19:00;;;;;;;14.43;9.65;;;;;;;;;;4403579;32;20250;-55
2021/07/16 14:21:25;;;;;;;13.70;10.32;;;;;;;;;;4403470;32;20269;-55
2021/07/16 14:23:51;;;;;;;11.43;9.52;;;;;;;;;;4402382;32;20395;-55
2021/07/16 14:26:16;;;;;;;12.30;9.13;;;;;;;;;;4402283;32;20285;-56
2021/07/16 14:28:42;;;;;;;9.98;8.75;;;;;;;;;;4403077;32;20204;-55